Time;durP1;ratioP1;P1;durP2;ratioP2;P2;SDS_P1;SDS_P2;PMS_P1;PMS_P2;Temp;Humidity;BMP_temperature;BMP_pressure;BME280_temperature;BME280_humidity;BME280_pressure;Samples;Min_cycle;Max_cycle;Signal;HPM_P1;HPM_P2
2022/11/29 00:02:13;;;;;;;;;;;8.50;97.50;;;;;;5067554;28;19928;-73
2022/11/29 00:04:39;;;;;;;;;;;8.50;97.50;;;;;;5067583;28;19917;-74
2022/11/29 00:07:04;;;;;;;;;;;8.50;97.50;;;;;;5067392;28;20004;-74
2022/11/29 00:09:30;;;;;;;;;;;8.50;97.50;;;;;;5065464;28;19917;-73
2022/11/29 00:12:13;;;;;;;;;;;8.50;97.50;;;;;;5066880;28;19966;-74
2022/11/29 00:14:39;;;;;;;;;;;8.50;97.50;;;;;;5067653;28;20675;-73
2022/11/29 00:17:05;;;;;;;;;;;8.50;97.50;;;;;;5067622;28;19939;-74
2022/11/29 00:19:31;;;;;;;;;;;8.50;97.50;;;;;;5067282;28;19912;-73
2022/11/29 00:21:57;;;;;;;;;;;8.50;97.50;;;;;;5067278;28;20420;-74
2022/11/29 00:24:22;;;;;;;;;;;8.50;97.50;;;;;;5068110;28;20015;-74
2022/11/29 00:26:48;;;;;;;;;;;8.50;97.50;;;;;;5046471;28;19931;-74
2022/11/29 00:29:13;;;;;;;;;;;8.50;97.50;;;;;;5045990;28;20563;-74
2022/11/29 00:31:39;;;;;;;;;;;8.50;97.50;;;;;;5065320;28;20007;-74
2022/11/29 00:34:07;;;;;;;;;;;8.50;97.50;;;;;;5066464;28;20283;-74
2022/11/29 00:36:33;;;;;;;;;;;8.50;97.50;;;;;;5065294;28;19908;-74
2022/11/29 00:38:59;;;;;;;;;;;8.50;97.50;;;;;;5064542;28;20329;-74
2022/11/29 00:41:25;;;;;;;;;;;8.50;97.50;;;;;;5072904;28;19923;-74
2022/11/29 00:43:50;;;;;;;;;;;8.50;97.50;;;;;;5086631;28;20459;-74
2022/11/29 00:46:16;;;;;;;;;;;8.50;97.50;;;;;;5086501;28;20646;-74
2022/11/29 00:48:41;;;;;;;;;;;8.50;97.50;;;;;;5087421;28;20010;-74
2022/11/29 00:51:07;;;;;;;;;;;8.50;97.50;;;;;;5086492;28;19912;-74
2022/11/29 00:53:33;;;;;;;;;;;8.50;97.50;;;;;;5075688;28;19912;-74
2022/11/29 00:55:59;;;;;;;;;;;8.50;97.50;;;;;;5073256;28;19915;-74
2022/11/29 00:58:24;;;;;;;;;;;8.50;97.50;;;;;;5085191;28;19912;-73
2022/11/29 01:00:52;;;;;;;;;;;8.50;97.50;;;;;;5074827;28;20411;-74
2022/11/29 01:03:18;;;;;;;;;;;8.50;97.50;;;;;;5065961;28;19912;-73
2022/11/29 01:05:43;;;;;;;;;;;8.50;97.50;;;;;;5066900;28;19912;-74
2022/11/29 01:08:09;;;;;;;;;;;8.50;97.50;;;;;;5061110;28;19924;-74
2022/11/29 01:10:35;;;;;;;;;;;8.50;97.50;;;;;;5046357;28;20328;-74
2022/11/29 01:13:00;;;;;;;;;;;8.50;97.50;;;;;;5046617;28;19913;-73
2022/11/29 01:15:26;;;;;;;;;;;8.50;97.50;;;;;;5068320;28;19916;-74
2022/11/29 01:17:52;;;;;;;;;;;8.50;97.50;;;;;;5086201;28;19920;-74
2022/11/29 01:20:17;;;;;;;;;;;8.50;97.50;;;;;;5086157;28;19948;-74
2022/11/29 01:22:43;;;;;;;;;;;8.50;97.50;;;;;;5086472;28;20010;-73
2022/11/29 01:25:09;;;;;;;;;;;8.50;97.50;;;;;;5060973;28;19912;-74
2022/11/29 01:27:35;;;;;;;;;;;8.50;97.50;;;;;;5084369;28;19912;-74
2022/11/29 01:30:00;;;;;;;;;;;8.50;97.50;;;;;;5061137;28;19912;-74
2022/11/29 01:32:26;;;;;;;;;;;8.50;97.50;;;;;;5066274;28;19916;-74
2022/11/29 01:34:51;;;;;;;;;;;8.50;97.50;;;;;;5066838;28;19912;-73
2022/11/29 01:37:17;;;;;;;;;;;8.50;97.50;;;;;;5066107;28;20285;-74
2022/11/29 01:39:42;;;;;;;;;;;8.50;97.50;;;;;;5066031;28;19914;-74
2022/11/29 01:42:11;;;;;;;;;;;8.50;97.50;;;;;;5066634;28;20030;-74
2022/11/29 01:44:37;;;;;;;;;;;8.50;97.50;;;;;;5066427;28;19912;-74
2022/11/29 01:47:02;;;;;;;;;;;8.50;97.50;;;;;;5068815;28;20002;-74
2022/11/29 01:49:31;;;;;;;;;;;8.50;97.50;;;;;;5086175;28;19912;-74
2022/11/29 01:51:59;;;;;;;;;;;8.50;97.50;;;;;;5086699;28;19929;-73
2022/11/29 01:54:24;;;;;;;;;;;8.50;97.50;;;;;;5060877;28;19917;-74
2022/11/29 01:56:50;;;;;;;;;;;8.50;97.50;;;;;;5088404;28;19919;-74
2022/11/29 01:59:17;;;;;;;;;;;8.60;97.60;;;;;;5090160;28;20327;-75
2022/11/29 02:01:42;;;;;;;;;;;8.50;97.50;;;;;;5069779;28;20274;-73
2022/11/29 02:04:08;;;;;;;;;;;8.50;97.50;;;;;;5070147;28;19909;-73
2022/11/29 02:06:35;;;;;;;;;;;8.50;97.50;;;;;;5069659;28;19920;-74
2022/11/29 02:09:00;;;;;;;;;;;8.50;97.50;;;;;;5056622;28;19919;-74
2022/11/29 02:11:25;;;;;;;;;;;8.60;97.60;;;;;;5048485;28;19920;-74
2022/11/29 02:13:51;;;;;;;;;;;8.50;97.60;;;;;;5048289;28;19939;-74
2022/11/29 02:16:22;;;;;;;;;;;8.50;97.60;;;;;;5049198;28;19959;-74
2022/11/29 02:18:54;;;;;;;;;;;8.60;97.60;;;;;;5063622;28;19924;-74
2022/11/29 02:21:19;;;;;;;;;;;8.60;97.60;;;;;;5069555;28;19935;-74
2022/11/29 02:24:07;;;;;;;;;;;8.60;97.70;;;;;;5069719;28;20398;-74
2022/11/29 02:26:45;;;;;;;;;;;8.50;97.60;;;;;;5086330;28;19915;-74
2022/11/29 02:29:20;;;;;;;;;;;8.60;97.60;;;;;;5088883;28;19988;-74
2022/11/29 02:32:04;;;;;;;;;;;8.60;97.70;;;;;;5069256;28;19964;-74
2022/11/29 02:34:41;;;;;;;;;;;8.50;97.60;;;;;;5084752;28;19916;-74
2022/11/29 02:37:15;;;;;;;;;;;8.60;97.70;;;;;;5089299;28;20641;-74
2022/11/29 02:39:54;;;;;;;;;;;8.50;97.60;;;;;;5070826;28;19912;-74
2022/11/29 02:42:26;;;;;;;;;;;8.60;97.70;;;;;;5069171;28;20361;-74
2022/11/29 02:45:03;;;;;;;;;;;8.60;97.70;;;;;;5068663;28;19918;-74
2022/11/29 02:47:35;;;;;;;;;;;8.50;97.70;;;;;;5067572;28;19909;-74
2022/11/29 02:50:03;;;;;;;;;;;8.50;97.70;;;;;;5070686;28;19916;-74
2022/11/29 02:52:37;;;;;;;;;;;8.60;97.70;;;;;;5068774;28;19978;-74
2022/11/29 02:55:09;;;;;;;;;;;8.60;97.70;;;;;;5074392;28;19946;-74
2022/11/29 02:57:40;;;;;;;;;;;8.60;97.70;;;;;;5089167;28;20515;-74
2022/11/29 03:00:14;;;;;;;;;;;8.60;97.70;;;;;;5082525;28;19999;-74
2022/11/29 03:03:03;;;;;;;;;;;8.60;97.70;;;;;;5068911;28;20259;-74
2022/11/29 03:05:32;;;;;;;;;;;8.60;97.70;;;;;;5062408;28;19916;-74
2022/11/29 03:08:12;;;;;;;;;;;8.60;97.70;;;;;;5070132;28;19912;-74
2022/11/29 03:10:38;;;;;;;;;;;8.60;97.70;;;;;;5088606;28;20002;-74
2022/11/29 03:13:09;;;;;;;;;;;8.50;97.70;;;;;;5084981;28;20030;-74
2022/11/29 03:15:43;;;;;;;;;;;8.60;97.70;;;;;;5068724;28;19912;-74
2022/11/29 03:18:20;;;;;;;;;;;8.60;97.70;;;;;;5068561;28;19995;-74
2022/11/29 03:20:52;;;;;;;;;;;8.60;97.80;;;;;;5068058;28;19913;-74
2022/11/29 03:23:17;;;;;;;;;;;8.50;97.80;;;;;;5069633;28;19913;-74
2022/11/29 03:25:46;;;;;;;;;;;8.60;97.80;;;;;;5070885;28;20091;-74
2022/11/29 03:28:31;;;;;;;;;;;8.60;97.80;;;;;;5076166;28;19912;-74
2022/11/29 03:31:02;;;;;;;;;;;8.60;97.80;;;;;;5061646;28;19912;-74
2022/11/29 03:33:46;;;;;;;;;;;8.60;97.80;;;;;;5068210;28;19920;-74
2022/11/29 03:36:35;;;;;;;;;;;8.60;97.80;;;;;;5068047;28;19909;-74
2022/11/29 03:39:03;;;;;;;;;;;8.60;97.80;;;;;;5069007;28;20075;-74
2022/11/29 03:41:28;;;;;;;;;;;8.60;97.80;;;;;;5087535;28;19908;-74
2022/11/29 03:44:16;;;;;;;;;;;8.60;97.80;;;;;;5088366;28;19918;-74
2022/11/29 03:47:00;;;;;;;;;;;8.60;97.80;;;;;;5088195;28;19912;-74
2022/11/29 03:49:58;;;;;;;;;;;8.60;97.80;;;;;;5087788;28;20364;-74
2022/11/29 03:52:37;;;;;;;;;;;8.50;97.80;;;;;;5075028;28;19923;-74
2022/11/29 03:55:11;;;;;;;;;;;8.60;97.80;;;;;;5062497;28;19912;-74
2022/11/29 03:57:55;;;;;;;;;;;8.60;97.80;;;;;;5086866;28;19916;-74
2022/11/29 04:00:22;;;;;;;;;;;8.60;97.90;;;;;;5079423;28;19912;-74
2022/11/29 04:03:06;;;;;;;;;;;8.60;97.80;;;;;;5067319;28;19912;-74
2022/11/29 04:05:48;;;;;;;;;;;8.60;97.80;;;;;;5067742;28;19912;-74
2022/11/29 04:08:33;;;;;;;;;;;8.60;97.90;;;;;;5072884;28;19920;-74
2022/11/29 04:11:04;;;;;;;;;;;8.60;97.90;;;;;;5066977;28;19912;-74
2022/11/29 04:13:48;;;;;;;;;;;8.60;97.90;;;;;;5067694;28;19916;-74
2022/11/29 04:16:25;;;;;;;;;;;8.50;97.90;;;;;;5067357;28;20635;-74
2022/11/29 04:19:09;;;;;;;;;;;8.60;97.90;;;;;;5063812;28;20492;-74
2022/11/29 04:21:41;;;;;;;;;;;8.60;98.00;;;;;;5068866;28;20011;-74
2022/11/29 04:24:18;;;;;;;;;;;8.60;97.90;;;;;;5066223;28;20288;-74
2022/11/29 04:26:56;;;;;;;;;;;8.60;97.90;;;;;;5085438;28;19918;-74
2022/11/29 04:29:33;;;;;;;;;;;8.60;97.90;;;;;;5087439;28;19973;-74
2022/11/29 04:31:58;;;;;;;;;;;8.60;97.90;;;;;;5067342;28;20030;-74
2022/11/29 04:34:33;;;;;;;;;;;8.60;97.90;;;;;;5067206;28;19912;-74
2022/11/29 04:37:01;;;;;;;;;;;8.60;97.90;;;;;;5066980;28;19982;-75
2022/11/29 04:39:36;;;;;;;;;;;8.60;97.90;;;;;;5067386;28;20611;-74
2022/11/29 04:42:01;;;;;;;;;;;8.60;98.00;;;;;;5086887;28;19958;-74
2022/11/29 04:44:43;;;;;;;;;;;8.60;98.00;;;;;;5087358;28;19951;-74
2022/11/29 04:47:14;;;;;;;;;;;8.60;98.00;;;;;;5087316;28;19958;-74
2022/11/29 04:49:52;;;;;;;;;;;8.60;98.00;;;;;;5076959;28;19912;-74
2022/11/29 04:52:17;;;;;;;;;;;8.60;98.00;;;;;;5067026;28;19954;-74
2022/11/29 04:54:50;;;;;;;;;;;8.60;98.00;;;;;;5071390;28;19963;-74
2022/11/29 04:57:28;;;;;;;;;;;8.60;98.00;;;;;;5086671;28;19909;-74
2022/11/29 05:00:05;;;;;;;;;;;8.60;98.00;;;;;;5082533;28;19920;-74
2022/11/29 05:02:49;;;;;;;;;;;8.60;98.10;;;;;;5066929;28;20002;-75
2022/11/29 05:05:33;;;;;;;;;;;8.50;98.00;;;;;;5066608;28;19913;-74
2022/11/29 05:08:01;;;;;;;;;;;8.60;98.00;;;;;;5066621;28;19978;-74
2022/11/29 05:10:33;;;;;;;;;;;8.50;98.00;;;;;;5064757;28;19916;-74
2022/11/29 05:13:10;;;;;;;;;;;8.60;98.10;;;;;;5067939;28;19948;-74
2022/11/29 05:15:54;;;;;;;;;;;8.60;98.00;;;;;;5066274;28;19913;-74
2022/11/29 05:18:20;;;;;;;;;;;8.60;98.00;;;;;;5066795;28;19913;-74
2022/11/29 05:20:50;;;;;;;;;;;8.50;98.00;;;;;;5065725;28;20276;-74
2022/11/29 05:23:34;;;;;;;;;;;8.50;98.00;;;;;;5065999;28;19916;-74
2022/11/29 05:26:10;;;;;;;;;;;8.60;98.00;;;;;;5078655;28;20311;-74
2022/11/29 05:28:36;;;;;;;;;;;8.60;98.10;;;;;;5079275;28;19927;-74
2022/11/29 05:31:04;;;;;;;;;;;8.50;98.00;;;;;;5068654;28;19913;-74
2022/11/29 05:33:49;;;;;;;;;;;8.60;98.00;;;;;;5070452;28;19923;-74
2022/11/29 05:36:26;;;;;;;;;;;8.50;98.00;;;;;;5050306;28;19917;-74
2022/11/29 05:39:10;;;;;;;;;;;8.60;98.00;;;;;;5056637;28;19952;-74
2022/11/29 05:41:44;;;;;;;;;;;8.50;98.00;;;;;;5069173;28;20529;-74
2022/11/29 05:44:12;;;;;;;;;;;8.50;98.00;;;;;;5070136;28;20023;-74
2022/11/29 05:46:58;;;;;;;;;;;8.60;98.00;;;;;;5076636;28;19969;-74
2022/11/29 05:49:27;;;;;;;;;;;8.60;98.00;;;;;;5090089;28;19998;-75
2022/11/29 05:51:57;;;;;;;;;;;8.60;98.00;;;;;;5090344;28;19937;-74
2022/11/29 05:54:31;;;;;;;;;;;8.50;98.00;;;;;;5064648;28;19945;-74
2022/11/29 05:57:03;;;;;;;;;;;8.50;98.00;;;;;;5048779;28;19963;-75
2022/11/29 05:59:29;;;;;;;;;;;8.50;98.00;;;;;;5050795;28;19948;-74
2022/11/29 06:01:54;;;;;;;;;;;8.50;98.00;;;;;;5070108;28;19921;-74
2022/11/29 06:04:20;;;;;;;;;;;8.50;98.00;;;;;;5070140;28;19958;-74
2022/11/29 06:06:49;;;;;;;;;;;8.50;98.00;;;;;;5069685;28;19919;-74
2022/11/29 06:09:25;;;;;;;;;;;8.50;98.00;;;;;;5058955;28;20011;-74
2022/11/29 06:11:56;;;;;;;;;;;8.50;98.00;;;;;;5066751;28;19992;-75
2022/11/29 06:14:24;;;;;;;;;;;8.50;98.00;;;;;;5069757;28;19913;-74
2022/11/29 06:16:56;;;;;;;;;;;8.50;98.00;;;;;;5068102;28;20003;-75
2022/11/29 06:19:30;;;;;;;;;;;8.50;98.00;;;;;;5066736;28;19918;-74
2022/11/29 06:21:58;;;;;;;;;;;8.50;98.00;;;;;;5069553;28;20419;-74
2022/11/29 06:24:44;;;;;;;;;;;8.50;98.00;;;;;;5069542;28;19958;-74
2022/11/29 06:27:20;;;;;;;;;;;8.50;98.00;;;;;;5049814;28;19913;-74
2022/11/29 06:29:58;;;;;;;;;;;8.50;98.00;;;;;;5052888;28;19909;-75
2022/11/29 06:32:30;;;;;;;;;;;8.50;98.00;;;;;;5069848;28;19920;-74
2022/11/29 06:34:58;;;;;;;;;;;8.50;98.00;;;;;;5068856;28;19913;-74
2022/11/29 06:37:28;;;;;;;;;;;8.50;98.00;;;;;;5068806;28;20357;-74
2022/11/29 06:39:54;;;;;;;;;;;8.50;98.00;;;;;;5068914;28;20057;-74
2022/11/29 06:42:19;;;;;;;;;;;8.50;98.00;;;;;;5067629;28;19913;-74
2022/11/29 06:44:46;;;;;;;;;;;8.50;98.00;;;;;;5069292;28;19913;-74
2022/11/29 06:47:21;;;;;;;;;;;8.50;98.00;;;;;;5075823;28;20452;-74
2022/11/29 06:49:49;;;;;;;;;;;8.50;98.00;;;;;;5087743;28;19943;-74
2022/11/29 06:52:15;;;;;;;;;;;8.50;98.00;;;;;;5089116;28;19916;-75
2022/11/29 06:54:48;;;;;;;;;;;8.50;98.00;;;;;;5063151;28;20354;-74
2022/11/29 06:57:16;;;;;;;;;;;8.50;98.00;;;;;;5080389;28;19912;-74
2022/11/29 06:59:51;;;;;;;;;;;8.50;98.00;;;;;;5068001;28;19944;-74
2022/11/29 07:02:35;;;;;;;;;;;8.50;98.00;;;;;;5067224;28;19958;-74
2022/11/29 07:05:06;;;;;;;;;;;8.50;98.10;;;;;;5067728;28;20320;-75
2022/11/29 07:07:33;;;;;;;;;;;8.50;98.10;;;;;;5066639;28;20401;-74
2022/11/29 07:10:00;;;;;;;;;;;8.50;98.10;;;;;;5067972;28;20416;-74
2022/11/29 07:12:26;;;;;;;;;;;8.50;98.10;;;;;;5066563;28;20001;-74
2022/11/29 07:14:51;;;;;;;;;;;8.50;98.10;;;;;;5067754;28;19916;-74
2022/11/29 07:17:29;;;;;;;;;;;8.40;98.00;;;;;;5066806;28;19913;-74
2022/11/29 07:20:01;;;;;;;;;;;8.40;98.10;;;;;;5066386;28;19908;-75
2022/11/29 07:22:47;;;;;;;;;;;8.50;98.10;;;;;;5065595;28;20439;-74
2022/11/29 07:25:12;;;;;;;;;;;8.40;98.10;;;;;;5069542;28;19920;-75
2022/11/29 07:27:46;;;;;;;;;;;8.50;98.10;;;;;;5067885;28;20297;-75
2022/11/29 07:30:17;;;;;;;;;;;8.50;98.10;;;;;;5067501;28;20011;-74
2022/11/29 07:32:49;;;;;;;;;;;8.50;98.10;;;;;;5067657;28;19924;-74
2022/11/29 07:35:23;;;;;;;;;;;8.50;98.10;;;;;;5065191;28;19916;-74
2022/11/29 07:38:12;;;;;;;;;;;8.50;98.10;;;;;;5068097;28;19912;-74
2022/11/29 07:40:57;;;;;;;;;;;8.40;98.10;;;;;;5059398;28;19919;-74
2022/11/29 07:43:29;;;;;;;;;;;8.40;98.10;;;;;;5068059;28;20555;-74
2022/11/29 07:45:55;;;;;;;;;;;8.40;98.10;;;;;;5069057;28;20615;-74
2022/11/29 07:48:20;;;;;;;;;;;8.40;98.10;;;;;;5068186;28;19920;-75
2022/11/29 07:50:46;;;;;;;;;;;8.50;98.10;;;;;;5067542;28;19913;-75
2022/11/29 07:53:15;;;;;;;;;;;8.50;98.10;;;;;;5067399;28;20031;-74
2022/11/29 07:55:41;;;;;;;;;;;8.50;98.10;;;;;;5077824;28;19912;-75
2022/11/29 07:58:09;;;;;;;;;;;8.40;98.10;;;;;;5065692;28;19923;-74
2022/11/29 08:00:35;;;;;;;;;;;8.40;98.10;;;;;;5067817;28;19912;-74
2022/11/29 08:03:00;;;;;;;;;;;8.40;98.10;;;;;;5067768;28;19918;-75
2022/11/29 08:05:26;;;;;;;;;;;8.40;98.10;;;;;;5067298;28;19974;-74
2022/11/29 08:07:53;;;;;;;;;;;8.40;98.10;;;;;;5066571;28;19916;-75
2022/11/29 08:10:18;;;;;;;;;;;8.40;98.10;;;;;;5066507;28;19916;-75
2022/11/29 08:12:46;;;;;;;;;;;8.50;98.10;;;;;;5067261;28;19920;-74
2022/11/29 08:15:11;;;;;;;;;;;8.40;98.10;;;;;;5067434;28;19912;-75
2022/11/29 08:17:37;;;;;;;;;;;8.50;98.10;;;;;;5068613;28;20426;-74
2022/11/29 08:20:03;;;;;;;;;;;8.40;98.10;;;;;;5067027;28;19916;-74
2022/11/29 08:22:29;;;;;;;;;;;8.50;98.10;;;;;;5067265;28;20441;-74
2022/11/29 08:24:54;;;;;;;;;;;8.40;98.10;;;;;;5071496;28;19912;-75
2022/11/29 08:27:20;;;;;;;;;;;8.50;98.10;;;;;;5087510;28;19912;-75
2022/11/29 08:29:45;;;;;;;;;;;8.50;98.10;;;;;;5066688;28;19913;-74
2022/11/29 08:32:11;;;;;;;;;;;8.50;98.10;;;;;;5066739;28;19973;-74
2022/11/29 08:34:36;;;;;;;;;;;8.40;98.10;;;;;;5066716;28;20007;-74
2022/11/29 08:37:02;;;;;;;;;;;8.50;98.10;;;;;;5065314;28;19975;-74
2022/11/29 08:39:27;;;;;;;;;;;8.50;98.00;;;;;;5062713;28;19909;-74
2022/11/29 08:41:53;;;;;;;;;;;8.50;98.00;;;;;;5064310;28;19928;-75
2022/11/29 08:44:18;;;;;;;;;;;8.50;98.00;;;;;;5064151;28;19909;-75
2022/11/29 08:49:28;;;;;;;;;;;8.50;98.00;;;;;;5070451;28;19962;-75
2022/11/29 08:53:40;;;;;;;;;;;8.50;98.00;;;;;;5063130;28;20522;-74
2022/11/29 08:54:38;;;;;;;;;;;8.50;98.00;;;;;;5063523;28;20296;-75
2022/11/29 08:57:04;;;;;;;;;;;8.50;98.00;;;;;;5061029;28;19913;-74
2022/11/29 08:59:30;;;;;;;;;;;8.60;98.00;;;;;;5063545;28;19913;-75
2022/11/29 09:01:55;;;;;;;;;;;8.60;98.00;;;;;;5062247;28;19913;-74
2022/11/29 09:04:21;;;;;;;;;;;8.50;98.00;;;;;;5062763;28;19960;-74
2022/11/29 09:06:48;;;;;;;;;;;8.60;98.00;;;;;;5067768;28;19942;-74
2022/11/29 09:09:14;;;;;;;;;;;8.60;98.00;;;;;;5069294;28;20294;-75
2022/11/29 09:11:40;;;;;;;;;;;8.60;98.00;;;;;;5067546;28;19921;-74
2022/11/29 09:14:06;;;;;;;;;;;8.60;98.10;;;;;;5063541;28;20054;-74
2022/11/29 09:16:33;;;;;;;;;;;8.60;98.00;;;;;;5067891;28;19917;-75
2022/11/29 09:18:59;;;;;;;;;;;8.60;98.00;;;;;;5069013;28;19916;-75
2022/11/29 09:21:25;;;;;;;;;;;8.60;98.00;;;;;;5067210;28;20377;-75
2022/11/29 09:23:57;;;;;;;;;;;8.70;98.00;;;;;;5069932;28;19969;-75
2022/11/29 09:26:24;;;;;;;;;;;8.60;98.00;;;;;;5067585;28;19912;-75
2022/11/29 09:28:50;;;;;;;;;;;8.70;98.00;;;;;;5069098;28;19913;-75
2022/11/29 09:31:15;;;;;;;;;;;8.70;98.00;;;;;;5067372;28;19997;-75
2022/11/29 09:33:41;;;;;;;;;;;8.70;98.00;;;;;;5068106;28;20345;-75
2022/11/29 09:36:07;;;;;;;;;;;8.70;98.00;;;;;;5067994;28;19999;-75
2022/11/29 09:38:33;;;;;;;;;;;8.70;98.00;;;;;;5067830;28;20016;-75
2022/11/29 09:41:07;;;;;;;;;;;8.70;98.00;;;;;;5067441;28;19995;-75
2022/11/29 09:43:38;;;;;;;;;;;8.70;98.00;;;;;;5065559;28;19939;-75
2022/11/29 09:46:16;;;;;;;;;;;8.70;98.00;;;;;;5066981;28;19966;-74
2022/11/29 09:48:52;;;;;;;;;;;8.70;98.00;;;;;;5065715;28;19916;-75
2022/11/29 09:51:29;;;;;;;;;;;8.70;98.00;;;;;;5059997;28;19921;-75
2022/11/29 09:54:13;;;;;;;;;;;8.70;97.90;;;;;;5062489;28;19920;-75
2022/11/29 09:56:43;;;;;;;;;;;8.70;97.90;;;;;;5070443;28;19967;-75
2022/11/29 09:59:15;;;;;;;;;;;8.80;98.00;;;;;;5067325;28;19916;-74
2022/11/29 10:01:45;;;;;;;;;;;8.80;97.90;;;;;;5069410;28;19916;-75
2022/11/29 10:04:17;;;;;;;;;;;8.80;98.00;;;;;;5069578;28;20499;-75
2022/11/29 10:06:55;;;;;;;;;;;8.80;97.90;;;;;;5069636;28;19931;-75
2022/11/29 10:09:20;;;;;;;;;;;8.80;97.90;;;;;;5069046;28;19913;-75
2022/11/29 10:11:46;;;;;;;;;;;8.80;97.90;;;;;;5069253;28;19920;-75
2022/11/29 10:14:14;;;;;;;;;;;8.80;98.00;;;;;;5069602;28;19946;-75
2022/11/29 10:16:46;;;;;;;;;;;8.80;98.00;;;;;;5068795;28;19912;-74
2022/11/29 10:19:11;;;;;;;;;;;8.80;98.00;;;;;;5069754;28;19916;-75
2022/11/29 10:21:40;;;;;;;;;;;8.80;98.00;;;;;;5069294;28;19919;-75
2022/11/29 10:24:09;;;;;;;;;;;8.80;98.00;;;;;;5069147;28;19985;-75
2022/11/29 10:26:36;;;;;;;;;;;8.80;98.00;;;;;;5087640;28;20041;-75
2022/11/29 10:29:01;;;;;;;;;;;8.80;98.00;;;;;;5077587;28;19913;-74
2022/11/29 10:31:48;;;;;;;;;;;8.80;98.00;;;;;;5069320;28;19955;-75
2022/11/29 10:34:21;;;;;;;;;;;8.80;98.00;;;;;;5068233;28;19923;-75
2022/11/29 10:36:54;;;;;;;;;;;8.80;98.00;;;;;;5068916;28;19999;-75
2022/11/29 10:39:22;;;;;;;;;;;8.80;98.10;;;;;;5069171;28;19912;-75
2022/11/29 10:41:50;;;;;;;;;;;8.80;98.10;;;;;;5069180;28;19915;-75
2022/11/29 10:44:16;;;;;;;;;;;8.80;98.10;;;;;;5069318;28;19913;-74
2022/11/29 10:46:41;;;;;;;;;;;8.90;98.10;;;;;;5069343;28;19986;-75
2022/11/29 10:49:12;;;;;;;;;;;8.90;98.00;;;;;;5069118;28;20396;-75
2022/11/29 10:51:38;;;;;;;;;;;8.90;98.00;;;;;;5068825;28;20365;-75
2022/11/29 10:54:12;;;;;;;;;;;8.90;98.00;;;;;;5068912;28;19978;-75
2022/11/29 10:56:39;;;;;;;;;;;8.90;98.00;;;;;;5087709;28;19908;-75
2022/11/29 10:59:07;;;;;;;;;;;8.90;98.00;;;;;;5073665;28;19942;-75
2022/11/29 11:01:39;;;;;;;;;;;8.90;98.00;;;;;;5068197;28;19931;-75
2022/11/29 11:04:08;;;;;;;;;;;8.90;98.00;;;;;;5079230;28;19955;-75
2022/11/29 11:06:55;;;;;;;;;;;8.90;98.00;;;;;;5089112;28;20361;-75
2022/11/29 11:09:20;;;;;;;;;;;9.00;98.00;;;;;;5073413;28;19947;-75
2022/11/29 11:11:53;;;;;;;;;;;8.90;98.00;;;;;;5068736;28;20554;-75
2022/11/29 11:14:22;;;;;;;;;;;8.90;98.00;;;;;;5069021;28;19915;-75
2022/11/29 11:16:48;;;;;;;;;;;8.90;98.00;;;;;;5068652;28;19908;-75
2022/11/29 11:19:26;;;;;;;;;;;9.00;98.10;;;;;;5066846;28;20599;-75
2022/11/29 11:21:52;;;;;;;;;;;9.00;98.00;;;;;;5069079;28;20615;-75
2022/11/29 11:24:22;;;;;;;;;;;9.00;98.10;;;;;;5068306;28;19955;-75
2022/11/29 11:26:47;;;;;;;;;;;8.90;98.10;;;;;;5087919;28;19923;-75
2022/11/29 11:29:16;;;;;;;;;;;8.90;98.00;;;;;;5088151;28;19912;-75
2022/11/29 11:31:42;;;;;;;;;;;8.90;98.00;;;;;;5068369;28;19912;-75
2022/11/29 11:34:22;;;;;;;;;;;9.00;98.10;;;;;;5068479;28;19916;-75
2022/11/29 11:36:48;;;;;;;;;;;9.00;98.00;;;;;;5068420;28;19938;-75
2022/11/29 11:39:18;;;;;;;;;;;9.00;98.30;;;;;;5052562;28;20551;-75
2022/11/29 11:44:52;;;;;;;;;;;8.90;98.00;;;;;;5048140;28;20007;-75
2022/11/29 11:47:17;;;;;;;;;;;9.00;98.10;;;;;;5045435;28;19920;-75
2022/11/29 11:49:53;;;;;;;;;;;9.00;98.10;;;;;;5046471;28;19909;-75
2022/11/29 11:52:20;;;;;;;;;;;9.00;98.10;;;;;;5046746;28;19913;-75
2022/11/29 11:54:49;;;;;;;;;;;9.00;98.10;;;;;;5056866;28;19912;-75
2022/11/29 11:57:16;;;;;;;;;;;9.00;98.10;;;;;;5070234;28;20582;-75
2022/11/29 11:59:46;;;;;;;;;;;9.00;98.10;;;;;;5066391;28;19912;-75
2022/11/29 12:02:30;;;;;;;;;;;9.00;98.10;;;;;;5068005;28;20544;-75
2022/11/29 12:04:57;;;;;;;;;;;9.00;98.10;;;;;;5067744;28;19909;-75
2022/11/29 12:07:29;;;;;;;;;;;9.00;98.00;;;;;;5067943;28;19963;-75
2022/11/29 12:09:58;;;;;;;;;;;9.00;98.00;;;;;;5061628;28;20535;-74
2022/11/29 12:12:24;;;;;;;;;;;9.00;98.00;;;;;;5087724;28;20010;-75
2022/11/29 12:14:52;;;;;;;;;;;9.00;98.00;;;;;;5087845;28;20440;-75
2022/11/29 12:17:31;;;;;;;;;;;9.00;98.10;;;;;;5087673;28;19951;-75
2022/11/29 12:20:22;;;;;;;;;;;9.00;98.10;;;;;;5087315;28;20432;-75
2022/11/29 12:22:48;;;;;;;;;;;9.00;98.10;;;;;;5085954;28;20003;-75
2022/11/29 12:25:17;;;;;;;;;;;9.00;98.10;;;;;;5061572;28;20367;-75
2022/11/29 12:27:42;;;;;;;;;;;9.00;98.10;;;;;;5086862;28;19915;-75
2022/11/29 12:30:12;;;;;;;;;;;9.00;98.10;;;;;;5063582;28;19916;-75
2022/11/29 12:32:37;;;;;;;;;;;9.00;98.10;;;;;;5066974;28;19916;-75
2022/11/29 12:35:24;;;;;;;;;;;9.00;98.10;;;;;;5067225;28;19913;-75
2022/11/29 12:37:53;;;;;;;;;;;9.00;98.10;;;;;;5067264;28;19912;-75
2022/11/29 12:40:19;;;;;;;;;;;9.00;98.10;;;;;;5066968;28;19908;-75
2022/11/29 12:42:47;;;;;;;;;;;9.00;98.10;;;;;;5072617;28;19965;-75
2022/11/29 12:45:13;;;;;;;;;;;9.00;98.20;;;;;;5086823;28;19923;-74
2022/11/29 12:47:44;;;;;;;;;;;9.00;98.20;;;;;;5087510;28;19909;-75
2022/11/29 12:50:13;;;;;;;;;;;9.00;98.20;;;;;;5085603;28;19912;-75
2022/11/29 12:52:57;;;;;;;;;;;9.00;98.10;;;;;;5087195;28;19939;-75
2022/11/29 12:55:29;;;;;;;;;;;8.90;98.10;;;;;;5063107;28;19912;-75
2022/11/29 12:57:55;;;;;;;;;;;8.90;98.20;;;;;;5078593;28;19912;-75
2022/11/29 13:00:20;;;;;;;;;;;9.00;98.20;;;;;;5066524;28;19920;-75
2022/11/29 13:02:51;;;;;;;;;;;8.90;98.20;;;;;;5066771;28;19916;-75
2022/11/29 13:05:16;;;;;;;;;;;8.90;98.20;;;;;;5067138;28;19979;-74
2022/11/29 13:08:01;;;;;;;;;;;8.90;98.20;;;;;;5065594;28;20419;-75
2022/11/29 13:10:34;;;;;;;;;;;8.90;98.20;;;;;;5066587;28;19952;-75
2022/11/29 13:13:03;;;;;;;;;;;8.90;98.20;;;;;;5066802;28;19919;-75
2022/11/29 13:15:41;;;;;;;;;;;8.90;98.20;;;;;;5068243;28;19948;-75
2022/11/29 13:18:42;;;;;;;;;;;8.90;98.20;;;;;;5073945;28;20001;-74
2022/11/29 13:21:25;;;;;;;;;;;8.90;98.20;;;;;;5043672;28;20008;-75
2022/11/29 13:23:50;;;;;;;;;;;9.00;98.30;;;;;;5064610;28;20458;-75
2022/11/29 13:26:17;;;;;;;;;;;9.00;98.30;;;;;;5082044;28;19916;-75
2022/11/29 13:28:44;;;;;;;;;;;9.00;98.20;;;;;;5086895;28;19912;-75
2022/11/29 13:31:17;;;;;;;;;;;8.90;98.20;;;;;;5071357;28;19908;-75
2022/11/29 13:33:55;;;;;;;;;;;8.90;98.20;;;;;;5080572;28;19943;-75
2022/11/29 13:36:23;;;;;;;;;;;9.00;98.20;;;;;;5085212;28;19923;-75
2022/11/29 13:38:54;;;;;;;;;;;8.90;98.20;;;;;;5075757;28;19908;-75
2022/11/29 13:41:20;;;;;;;;;;;8.90;98.20;;;;;;5060881;28;19965;-75
2022/11/29 13:44:08;;;;;;;;;;;8.90;98.20;;;;;;5065761;28;19920;-75
2022/11/29 13:46:49;;;;;;;;;;;8.90;98.20;;;;;;5065671;28;19916;-74
2022/11/29 13:49:35;;;;;;;;;;;9.00;98.30;;;;;;5066141;28;20285;-74
2022/11/29 13:52:05;;;;;;;;;;;8.90;98.20;;;;;;5062287;28;19920;-75
2022/11/29 13:54:31;;;;;;;;;;;8.90;98.30;;;;;;5056990;28;20679;-75
2022/11/29 13:57:01;;;;;;;;;;;8.90;98.30;;;;;;5074201;28;19920;-74
2022/11/29 13:59:29;;;;;;;;;;;8.90;98.30;;;;;;5068711;28;19947;-75
2022/11/29 14:01:55;;;;;;;;;;;8.90;98.30;;;;;;5069043;28;20695;-75
2022/11/29 14:04:24;;;;;;;;;;;9.00;98.20;;;;;;5069240;28;20360;-75
2022/11/29 14:06:59;;;;;;;;;;;8.90;98.30;;;;;;5068888;28;19923;-75
2022/11/29 14:09:27;;;;;;;;;;;8.90;98.20;;;;;;5052788;28;19916;-75
2022/11/29 14:11:55;;;;;;;;;;;8.90;98.20;;;;;;5080970;28;19921;-74
2022/11/29 14:14:24;;;;;;;;;;;8.90;98.20;;;;;;5048839;28;20393;-75
2022/11/29 14:16:52;;;;;;;;;;;9.00;98.20;;;;;;5054527;28;20557;-75
2022/11/29 14:19:18;;;;;;;;;;;8.90;98.20;;;;;;5068567;28;20011;-75
2022/11/29 14:21:55;;;;;;;;;;;8.90;98.20;;;;;;5068625;28;20460;-75
2022/11/29 14:24:41;;;;;;;;;;;8.90;98.20;;;;;;5068829;28;20285;-75
2022/11/29 14:27:06;;;;;;;;;;;9.00;98.30;;;;;;5048419;28;19956;-75
2022/11/29 14:29:51;;;;;;;;;;;9.00;98.30;;;;;;5058812;28;19975;-75
2022/11/29 14:32:31;;;;;;;;;;;9.00;98.30;;;;;;5083386;28;20658;-75
2022/11/29 14:35:01;;;;;;;;;;;9.00;98.30;;;;;;5088934;28;19911;-75
2022/11/29 14:37:39;;;;;;;;;;;9.00;98.30;;;;;;5088529;28;20052;-75
2022/11/29 14:40:21;;;;;;;;;;;9.00;98.30;;;;;;5046980;28;20449;-75
2022/11/29 14:42:47;;;;;;;;;;;9.00;98.20;;;;;;5047798;28;19952;-75
2022/11/29 14:45:29;;;;;;;;;;;9.00;98.20;;;;;;5052100;28;20336;-76
2022/11/29 14:47:55;;;;;;;;;;;9.00;98.20;;;;;;5067445;28;20672;-75
2022/11/29 14:50:27;;;;;;;;;;;9.00;98.20;;;;;;5065764;28;19909;-75
2022/11/29 14:52:52;;;;;;;;;;;9.00;98.20;;;;;;5068013;28;19923;-75
2022/11/29 14:55:24;;;;;;;;;;;9.00;98.20;;;;;;5075676;28;19908;-75
2022/11/29 14:57:49;;;;;;;;;;;9.00;98.30;;;;;;5077938;28;19917;-75
2022/11/29 15:00:41;;;;;;;;;;;9.00;98.30;;;;;;5072578;28;20294;-75